sensor_id;sensor_type;location;lat;lon;timestamp;pressure;altitude;pressure_sealevel;temperature;humidity
37858;BME280;23695;55.868;37.472;2022-09-09T00:04:33;100069.94;;;7.54;66.19
37858;BME280;23695;55.868;37.472;2022-09-09T00:09:50;100071.59;;;7.50;66.28
37858;BME280;23695;55.868;37.472;2022-09-09T00:15:04;100064.84;;;7.52;66.13
37858;BME280;23695;55.868;37.472;2022-09-09T00:17:43;100065.56;;;7.39;66.59
37858;BME280;23695;55.868;37.472;2022-09-09T00:21:03;100078.13;;;7.25;66.94
37858;BME280;23695;55.868;37.472;2022-09-09T00:23:12;100073.13;;;7.13;67.47
37858;BME280;23695;55.868;37.472;2022-09-09T00:28:23;100080.25;;;7.23;67.21
37858;BME280;23695;55.868;37.472;2022-09-09T00:30:51;100087.72;;;7.07;67.75
37858;BME280;23695;55.868;37.472;2022-09-09T00:33:20;100082.34;;;7.07;67.49
37858;BME280;23695;55.868;37.472;2022-09-09T00:35:50;100086.63;;;6.84;69.00
37858;BME280;23695;55.868;37.472;2022-09-09T00:38:25;100088.69;;;6.92;68.51
37858;BME280;23695;55.868;37.472;2022-09-09T00:41:00;100088.91;;;6.96;68.30
37858;BME280;23695;55.868;37.472;2022-09-09T00:43:39;100089.66;;;7.01;68.06
37858;BME280;23695;55.868;37.472;2022-09-09T00:57:25;100101.41;;;7.05;67.67
37858;BME280;23695;55.868;37.472;2022-09-09T01:08:32;100110.81;;;7.08;68.05
37858;BME280;23695;55.868;37.472;2022-09-09T01:11:03;100111.81;;;7.12;67.96
37858;BME280;23695;55.868;37.472;2022-09-09T01:13:34;100114.47;;;7.17;67.80
37858;BME280;23695;55.868;37.472;2022-09-09T01:16:08;100114.38;;;7.22;68.00
37858;BME280;23695;55.868;37.472;2022-09-09T01:18:43;100116.41;;;7.12;67.99
37858;BME280;23695;55.868;37.472;2022-09-09T01:27:07;100119.84;;;6.64;68.74
37858;BME280;23695;55.868;37.472;2022-09-09T01:29:36;100119.84;;;6.64;68.74
37858;BME280;23695;55.868;37.472;2022-09-09T01:35:04;100125.31;;;6.49;69.10
37858;BME280;23695;55.868;37.472;2022-09-09T01:37:33;100128.81;;;6.49;69.59
37858;BME280;23695;55.868;37.472;2022-09-09T01:40:00;100114.69;;;6.39;69.89
37858;BME280;23695;55.868;37.472;2022-09-09T01:42:29;100136.84;;;6.55;69.41
37858;BME280;23695;55.868;37.472;2022-09-09T01:44:58;100136.28;;;6.52;69.67
37858;BME280;23695;55.868;37.472;2022-09-09T01:47:25;100135.25;;;6.48;69.51
37858;BME280;23695;55.868;37.472;2022-09-09T01:50:18;100135.13;;;6.64;69.23
37858;BME280;23695;55.868;37.472;2022-09-09T01:52:47;100141.50;;;6.73;69.24
37858;BME280;23695;55.868;37.472;2022-09-09T01:55:28;100144.91;;;6.78;69.22
37858;BME280;23695;55.868;37.472;2022-09-09T01:58:34;100137.94;;;6.77;69.24
37858;BME280;23695;55.868;37.472;2022-09-09T02:04:01;100151.53;;;6.91;68.83
37858;BME280;23695;55.868;37.472;2022-09-09T02:06:35;100150.72;;;6.91;68.39
37858;BME280;23695;55.868;37.472;2022-09-09T02:09:16;100155.84;;;6.87;68.21
37858;BME280;23695;55.868;37.472;2022-09-09T02:11:47;100154.56;;;6.79;68.73
37858;BME280;23695;55.868;37.472;2022-09-09T02:14:30;100151.44;;;6.72;68.46
37858;BME280;23695;55.868;37.472;2022-09-09T02:17:13;100158.00;;;6.56;69.23
37858;BME280;23695;55.868;37.472;2022-09-09T02:20:06;100158.22;;;6.65;69.02
37858;BME280;23695;55.868;37.472;2022-09-09T02:22:56;100158.50;;;6.63;68.61
37858;BME280;23695;55.868;37.472;2022-09-09T02:25:28;100154.19;;;6.62;68.29
37858;BME280;23695;55.868;37.472;2022-09-09T02:28:11;100160.69;;;6.56;68.36
37858;BME280;23695;55.868;37.472;2022-09-09T02:30:40;100150.00;;;6.51;68.49
37858;BME280;23695;55.868;37.472;2022-09-09T02:33:10;100156.22;;;6.46;68.63
37858;BME280;23695;55.868;37.472;2022-09-09T02:35:50;100158.13;;;6.41;69.15
37858;BME280;23695;55.868;37.472;2022-09-09T02:38:21;100167.78;;;6.42;69.29
37858;BME280;23695;55.868;37.472;2022-09-09T02:41:04;100164.81;;;6.43;69.25
37858;BME280;23695;55.868;37.472;2022-09-09T02:43:35;100177.41;;;6.48;69.56
37858;BME280;23695;55.868;37.472;2022-09-09T02:52:05;100181.69;;;6.44;69.72
37858;BME280;23695;55.868;37.472;2022-09-09T02:54:38;100182.03;;;6.37;69.68
37858;BME280;23695;55.868;37.472;2022-09-09T02:57:17;100192.84;;;6.22;70.59
37858;BME280;23695;55.868;37.472;2022-09-09T02:59:48;100191.78;;;6.18;70.49
37858;BME280;23695;55.868;37.472;2022-09-09T03:02:16;100191.56;;;6.14;70.59
37858;BME280;23695;55.868;37.472;2022-09-09T03:04:50;100195.31;;;6.18;70.63
37858;BME280;23695;55.868;37.472;2022-09-09T03:07:20;100195.81;;;6.20;70.46
37858;BME280;23695;55.868;37.472;2022-09-09T03:09:48;100199.84;;;6.18;70.38
37858;BME280;23695;55.868;37.472;2022-09-09T03:12:16;100196.84;;;6.24;70.27
37858;BME280;23695;55.868;37.472;2022-09-09T03:14:43;100200.63;;;6.23;70.73
37858;BME280;23695;55.868;37.472;2022-09-09T03:17:13;100201.47;;;6.19;71.06
37858;BME280;23695;55.868;37.472;2022-09-09T03:19:47;100210.28;;;6.24;70.43
37858;BME280;23695;55.868;37.472;2022-09-09T03:22:16;100207.28;;;6.31;70.46
37858;BME280;23695;55.868;37.472;2022-09-09T03:24:44;100205.34;;;6.42;70.69
37858;BME280;23695;55.868;37.472;2022-09-09T03:27:11;100209.94;;;6.36;70.76
37858;BME280;23695;55.868;37.472;2022-09-09T03:29:39;100211.38;;;6.63;71.09
37858;BME280;23695;55.868;37.472;2022-09-09T03:32:09;66079.69;;;-144.89;100.00
37858;BME280;23695;55.868;37.472;2022-09-09T03:34:39;100211.38;;;6.63;71.09
37858;BME280;23695;55.868;37.472;2022-09-09T03:37:10;100217.66;;;9.28;65.28
37858;BME280;23695;55.868;37.472;2022-09-09T03:39:37;66079.69;;;-144.89;100.00
37858;BME280;23695;55.868;37.472;2022-09-09T03:42:04;66079.69;;;-144.89;100.00
37858;BME280;23695;55.868;37.472;2022-09-09T03:44:32;66079.69;;;-144.89;100.00
37858;BME280;23695;55.868;37.472;2022-09-09T03:47:00;66079.69;;;-144.89;100.00
37858;BME280;23695;55.868;37.472;2022-09-09T03:49:27;66079.69;;;-144.89;100.00
37858;BME280;23695;55.868;37.472;2022-09-09T03:51:57;66079.69;;;-144.89;100.00
37858;BME280;23695;55.868;37.472;2022-09-09T03:54:25;66079.69;;;-144.89;100.00
37858;BME280;23695;55.868;37.472;2022-09-09T03:56:52;66079.69;;;-144.89;100.00
37858;BME280;23695;55.868;37.472;2022-09-09T03:59:21;66079.69;;;-144.89;100.00
37858;BME280;23695;55.868;37.472;2022-09-09T04:01:49;100223.34;;;10.09;58.01
37858;BME280;23695;55.868;37.472;2022-09-09T04:04:16;100222.56;;;9.68;57.87
37858;BME280;23695;55.868;37.472;2022-09-09T04:06:43;66079.69;;;-144.89;100.00
37858;BME280;23695;55.868;37.472;2022-09-09T04:09:11;66079.69;;;-144.89;100.00
37858;BME280;23695;55.868;37.472;2022-09-09T04:11:38;66079.69;;;-144.89;100.00
37858;BME280;23695;55.868;37.472;2022-09-09T04:14:05;66079.69;;;-144.89;100.00
37858;BME280;23695;55.868;37.472;2022-09-09T04:16:33;66079.69;;;-144.89;100.00
37858;BME280;23695;55.868;37.472;2022-09-09T04:19:03;66079.69;;;-144.89;100.00
37858;BME280;23695;55.868;37.472;2022-09-09T04:21:30;66079.69;;;-144.89;100.00
37858;BME280;23695;55.868;37.472;2022-09-09T04:23:59;66079.69;;;-144.89;100.00
37858;BME280;23695;55.868;37.472;2022-09-09T04:26:26;66079.69;;;-144.89;100.00
37858;BME280;23695;55.868;37.472;2022-09-09T04:28:53;66079.69;;;-144.89;100.00
37858;BME280;23695;55.868;37.472;2022-09-09T04:31:22;66079.69;;;-144.89;100.00
37858;BME280;23695;55.868;37.472;2022-09-09T04:33:53;66079.69;;;-144.89;100.00
37858;BME280;23695;55.868;37.472;2022-09-09T04:36:21;66079.69;;;-144.89;100.00
37858;BME280;23695;55.868;37.472;2022-09-09T04:38:50;66079.69;;;-144.89;100.00
37858;BME280;23695;55.868;37.472;2022-09-09T04:41:17;66079.69;;;-144.89;100.00
37858;BME280;23695;55.868;37.472;2022-09-09T04:43:48;66079.69;;;-144.89;100.00
37858;BME280;23695;55.868;37.472;2022-09-09T04:46:15;66079.69;;;-144.89;100.00
37858;BME280;23695;55.868;37.472;2022-09-09T04:48:45;66079.69;;;-144.89;100.00
37858;BME280;23695;55.868;37.472;2022-09-09T04:51:13;66079.69;;;-144.89;100.00
37858;BME280;23695;55.868;37.472;2022-09-09T04:53:42;66079.69;;;-144.89;100.00
37858;BME280;23695;55.868;37.472;2022-09-09T04:56:16;66079.69;;;-144.89;100.00
37858;BME280;23695;55.868;37.472;2022-09-09T04:58:50;66079.69;;;-144.89;100.00
37858;BME280;23695;55.868;37.472;2022-09-09T05:01:20;66079.69;;;-144.89;100.00
37858;BME280;23695;55.868;37.472;2022-09-09T05:03:53;66079.69;;;-144.89;100.00
37858;BME280;23695;55.868;37.472;2022-09-09T05:06:22;66079.69;;;-144.89;100.00
37858;BME280;23695;55.868;37.472;2022-09-09T05:08:54;66079.69;;;-144.89;100.00
37858;BME280;23695;55.868;37.472;2022-09-09T05:11:29;66079.69;;;-144.89;100.00
37858;BME280;23695;55.868;37.472;2022-09-09T05:14:00;66079.69;;;-144.89;100.00
37858;BME280;23695;55.868;37.472;2022-09-09T05:16:30;66079.69;;;-144.89;100.00
37858;BME280;23695;55.868;37.472;2022-09-09T05:18:57;66079.69;;;-144.89;100.00
37858;BME280;23695;55.868;37.472;2022-09-09T05:21:34;66079.69;;;-144.89;100.00
37858;BME280;23695;55.868;37.472;2022-09-09T05:24:01;66079.69;;;-144.89;100.00
37858;BME280;23695;55.868;37.472;2022-09-09T05:26:28;66079.69;;;-144.89;100.00
37858;BME280;23695;55.868;37.472;2022-09-09T05:28:57;66079.69;;;-144.89;100.00
37858;BME280;23695;55.868;37.472;2022-09-09T05:31:25;66079.69;;;-144.89;100.00
37858;BME280;23695;55.868;37.472;2022-09-09T05:33:56;66079.69;;;-144.89;100.00
37858;BME280;23695;55.868;37.472;2022-09-09T05:36:23;66079.69;;;-144.89;100.00
37858;BME280;23695;55.868;37.472;2022-09-09T05:38:54;66079.69;;;-144.89;100.00
37858;BME280;23695;55.868;37.472;2022-09-09T05:41:21;66079.69;;;-144.89;100.00
37858;BME280;23695;55.868;37.472;2022-09-09T05:43:52;66079.69;;;-144.89;100.00
37858;BME280;23695;55.868;37.472;2022-09-09T05:46:22;66079.69;;;-144.89;100.00
37858;BME280;23695;55.868;37.472;2022-09-09T05:48:52;66079.69;;;-144.89;100.00
37858;BME280;23695;55.868;37.472;2022-09-09T05:51:26;66079.69;;;-144.89;100.00
37858;BME280;23695;55.868;37.472;2022-09-09T05:53:56;66079.69;;;-144.89;100.00
37858;BME280;23695;55.868;37.472;2022-09-09T05:56:28;66079.69;;;-144.89;100.00
37858;BME280;23695;55.868;37.472;2022-09-09T05:58:58;66079.69;;;-144.89;100.00
37858;BME280;23695;55.868;37.472;2022-09-09T06:01:31;66079.69;;;-144.89;100.00
37858;BME280;23695;55.868;37.472;2022-09-09T06:03:59;66079.69;;;-144.89;100.00
37858;BME280;23695;55.868;37.472;2022-09-09T06:06:32;66079.69;;;-144.89;100.00
37858;BME280;23695;55.868;37.472;2022-09-09T06:09:09;66079.69;;;-144.89;100.00
37858;BME280;23695;55.868;37.472;2022-09-09T06:11:40;66079.69;;;-144.89;100.00
37858;BME280;23695;55.868;37.472;2022-09-09T06:14:08;66079.69;;;-144.89;100.00
37858;BME280;23695;55.868;37.472;2022-09-09T06:16:36;66079.69;;;-144.89;100.00
37858;BME280;23695;55.868;37.472;2022-09-09T06:19:14;66079.69;;;-144.89;100.00
37858;BME280;23695;55.868;37.472;2022-09-09T06:21:41;66079.69;;;-144.89;100.00
37858;BME280;23695;55.868;37.472;2022-09-09T06:24:11;66079.69;;;-144.89;100.00
37858;BME280;23695;55.868;37.472;2022-09-09T06:26:41;66079.69;;;-144.89;100.00
37858;BME280;23695;55.868;37.472;2022-09-09T06:29:11;66079.69;;;-144.89;100.00
37858;BME280;23695;55.868;37.472;2022-09-09T06:31:40;66079.69;;;-144.89;100.00
37858;BME280;23695;55.868;37.472;2022-09-09T06:34:18;66079.69;;;-144.89;100.00
37858;BME280;23695;55.868;37.472;2022-09-09T06:36:49;66079.69;;;-144.89;100.00
37858;BME280;23695;55.868;37.472;2022-09-09T06:39:16;66079.69;;;-144.89;100.00
37858;BME280;23695;55.868;37.472;2022-09-09T06:41:44;66079.69;;;-144.89;100.00
37858;BME280;23695;55.868;37.472;2022-09-09T06:44:29;66079.69;;;-144.89;100.00
37858;BME280;23695;55.868;37.472;2022-09-09T06:47:02;66079.69;;;-144.89;100.00
37858;BME280;23695;55.868;37.472;2022-09-09T06:49:30;66079.69;;;-144.89;100.00
37858;BME280;23695;55.868;37.472;2022-09-09T06:51:58;66079.69;;;-144.89;100.00
37858;BME280;23695;55.868;37.472;2022-09-09T06:54:27;66079.69;;;-144.89;100.00
37858;BME280;23695;55.868;37.472;2022-09-09T06:56:55;66079.69;;;-144.89;100.00
37858;BME280;23695;55.868;37.472;2022-09-09T06:59:22;66079.69;;;-144.89;100.00
37858;BME280;23695;55.868;37.472;2022-09-09T07:01:53;66079.69;;;-144.89;100.00
37858;BME280;23695;55.868;37.472;2022-09-09T07:04:22;66079.69;;;-144.89;100.00
37858;BME280;23695;55.868;37.472;2022-09-09T07:06:49;66079.69;;;-144.89;100.00
37858;BME280;23695;55.868;37.472;2022-09-09T07:09:24;66079.69;;;-144.89;100.00
37858;BME280;23695;55.868;37.472;2022-09-09T07:11:52;66079.69;;;-144.89;100.00
37858;BME280;23695;55.868;37.472;2022-09-09T07:14:22;66079.69;;;-144.89;100.00
37858;BME280;23695;55.868;37.472;2022-09-09T07:16:58;66079.69;;;-144.89;100.00
37858;BME280;23695;55.868;37.472;2022-09-09T07:19:31;66079.69;;;-144.89;100.00
37858;BME280;23695;55.868;37.472;2022-09-09T07:21:58;66079.69;;;-144.89;100.00
37858;BME280;23695;55.868;37.472;2022-09-09T07:24:25;66079.69;;;-144.89;100.00
37858;BME280;23695;55.868;37.472;2022-09-09T07:26:52;66079.69;;;-144.89;100.00
37858;BME280;23695;55.868;37.472;2022-09-09T07:29:20;66079.69;;;-144.89;100.00
37858;BME280;23695;55.868;37.472;2022-09-09T07:31:48;66079.69;;;-144.89;100.00
37858;BME280;23695;55.868;37.472;2022-09-09T07:34:22;66079.69;;;-144.89;100.00
37858;BME280;23695;55.868;37.472;2022-09-09T07:36:50;66079.69;;;-144.89;100.00
37858;BME280;23695;55.868;37.472;2022-09-09T07:39:18;66079.69;;;-144.89;100.00
37858;BME280;23695;55.868;37.472;2022-09-09T07:41:48;66079.69;;;-144.89;100.00
37858;BME280;23695;55.868;37.472;2022-09-09T07:44:21;66079.69;;;-144.89;100.00
37858;BME280;23695;55.868;37.472;2022-09-09T07:46:53;66079.69;;;-144.89;100.00
37858;BME280;23695;55.868;37.472;2022-09-09T07:49:25;66079.69;;;-144.89;100.00
37858;BME280;23695;55.868;37.472;2022-09-09T07:51:59;66079.69;;;-144.89;100.00
37858;BME280;23695;55.868;37.472;2022-09-09T07:54:26;66079.69;;;-144.89;100.00
37858;BME280;23695;55.868;37.472;2022-09-09T07:56:54;66079.69;;;-144.89;100.00
37858;BME280;23695;55.868;37.472;2022-09-09T07:59:25;66079.69;;;-144.89;100.00
37858;BME280;23695;55.868;37.472;2022-09-09T08:01:53;66079.69;;;-144.89;100.00
37858;BME280;23695;55.868;37.472;2022-09-09T08:04:25;66079.69;;;-144.89;100.00
37858;BME280;23695;55.868;37.472;2022-09-09T08:06:56;66079.69;;;-144.89;100.00
37858;BME280;23695;55.868;37.472;2022-09-09T08:09:26;66079.69;;;-144.89;100.00
37858;BME280;23695;55.868;37.472;2022-09-09T08:12:05;66079.69;;;-144.89;100.00
37858;BME280;23695;55.868;37.472;2022-09-09T08:14:33;66079.69;;;-144.89;100.00
37858;BME280;23695;55.868;37.472;2022-09-09T08:17:00;66079.69;;;-144.89;100.00
37858;BME280;23695;55.868;37.472;2022-09-09T08:19:29;66079.69;;;-144.89;100.00
37858;BME280;23695;55.868;37.472;2022-09-09T08:21:58;66079.69;;;-144.89;100.00
37858;BME280;23695;55.868;37.472;2022-09-09T08:24:26;66079.69;;;-144.89;100.00
37858;BME280;23695;55.868;37.472;2022-09-09T08:26:53;66079.69;;;-144.89;100.00
37858;BME280;23695;55.868;37.472;2022-09-09T08:29:23;66079.69;;;-144.89;100.00
37858;BME280;23695;55.868;37.472;2022-09-09T08:31:54;66079.69;;;-144.89;100.00
37858;BME280;23695;55.868;37.472;2022-09-09T08:34:21;66079.69;;;-144.89;100.00
37858;BME280;23695;55.868;37.472;2022-09-09T08:36:50;66079.69;;;-144.89;100.00
37858;BME280;23695;55.868;37.472;2022-09-09T08:39:21;66079.69;;;-144.89;100.00
37858;BME280;23695;55.868;37.472;2022-09-09T08:44:55;66079.69;;;-144.89;100.00
37858;BME280;23695;55.868;37.472;2022-09-09T08:50:29;66079.69;;;-144.89;100.00
37858;BME280;23695;55.868;37.472;2022-09-09T08:53:24;66079.69;;;-144.89;100.00
37858;BME280;23695;55.868;37.472;2022-09-09T08:55:58;66079.69;;;-144.89;100.00
37858;BME280;23695;55.868;37.472;2022-09-09T08:58:49;66079.69;;;-144.89;100.00
37858;BME280;23695;55.868;37.472;2022-09-09T09:01:49;66079.69;;;-144.89;100.00
37858;BME280;23695;55.868;37.472;2022-09-09T09:04:45;66079.69;;;-144.89;100.00
37858;BME280;23695;55.868;37.472;2022-09-09T09:13:02;66079.69;;;-144.89;100.00
37858;BME280;23695;55.868;37.472;2022-09-09T09:15:37;66079.69;;;-144.89;100.00
37858;BME280;23695;55.868;37.472;2022-09-09T09:18:09;66079.69;;;-144.89;100.00
37858;BME280;23695;55.868;37.472;2022-09-09T09:20:45;66079.69;;;-144.89;100.00
37858;BME280;23695;55.868;37.472;2022-09-09T09:23:26;66079.69;;;-144.89;100.00
37858;BME280;23695;55.868;37.472;2022-09-09T09:25:59;66079.69;;;-144.89;100.00
37858;BME280;23695;55.868;37.472;2022-09-09T09:28:31;66079.69;;;-144.89;100.00
37858;BME280;23695;55.868;37.472;2022-09-09T09:31:09;66079.69;;;-144.89;100.00
37858;BME280;23695;55.868;37.472;2022-09-09T09:33:50;66079.69;;;-144.89;100.00
37858;BME280;23695;55.868;37.472;2022-09-09T09:36:33;66079.69;;;-144.89;100.00
37858;BME280;23695;55.868;37.472;2022-09-09T09:39:03;66079.69;;;-144.89;100.00
37858;BME280;23695;55.868;37.472;2022-09-09T09:41:52;66079.69;;;-144.89;100.00
37858;BME280;23695;55.868;37.472;2022-09-09T09:44:26;66079.69;;;-144.89;100.00
37858;BME280;23695;55.868;37.472;2022-09-09T09:49:56;66079.69;;;-144.89;100.00
37858;BME280;23695;55.868;37.472;2022-09-09T09:52:30;66079.69;;;-144.89;100.00
37858;BME280;23695;55.868;37.472;2022-09-09T09:55:03;66079.69;;;-144.89;100.00
37858;BME280;23695;55.868;37.472;2022-09-09T09:57:34;66079.69;;;-144.89;100.00
37858;BME280;23695;55.868;37.472;2022-09-09T10:00:18;66079.69;;;-144.89;100.00
37858;BME280;23695;55.868;37.472;2022-09-09T10:02:52;66079.69;;;-144.89;100.00
37858;BME280;23695;55.868;37.472;2022-09-09T10:05:26;66079.69;;;-144.89;100.00
37858;BME280;23695;55.868;37.472;2022-09-09T10:08:12;66079.69;;;-144.89;100.00
37858;BME280;23695;55.868;37.472;2022-09-09T10:19:21;66079.69;;;-144.89;100.00
37858;BME280;23695;55.868;37.472;2022-09-09T10:25:09;66079.69;;;-144.89;100.00
37858;BME280;23695;55.868;37.472;2022-09-09T10:30:31;66079.69;;;-144.89;100.00
37858;BME280;23695;55.868;37.472;2022-09-09T10:38:24;66079.69;;;-144.89;100.00
37858;BME280;23695;55.868;37.472;2022-09-09T10:43:33;66079.69;;;-144.89;100.00
37858;BME280;23695;55.868;37.472;2022-09-09T10:57:05;66079.69;;;-144.89;100.00
37858;BME280;23695;55.868;37.472;2022-09-09T10:59:41;66079.69;;;-144.89;100.00
37858;BME280;23695;55.868;37.472;2022-09-09T11:02:14;66079.69;;;-144.89;100.00
37858;BME280;23695;55.868;37.472;2022-09-09T11:04:50;66079.69;;;-144.89;100.00
37858;BME280;23695;55.868;37.472;2022-09-09T11:07:27;66079.69;;;-144.89;100.00
37858;BME280;23695;55.868;37.472;2022-09-09T11:10:01;66079.69;;;-144.89;100.00
37858;BME280;23695;55.868;37.472;2022-09-09T11:12:29;66079.69;;;-144.89;100.00
37858;BME280;23695;55.868;37.472;2022-09-09T11:15:06;66079.69;;;-144.89;100.00
37858;BME280;23695;55.868;37.472;2022-09-09T11:17:40;66079.69;;;-144.89;100.00
37858;BME280;23695;55.868;37.472;2022-09-09T11:20:12;66079.69;;;-144.89;100.00
37858;BME280;23695;55.868;37.472;2022-09-09T11:22:49;66079.69;;;-144.89;100.00
37858;BME280;23695;55.868;37.472;2022-09-09T11:25:37;66079.69;;;-144.89;100.00
37858;BME280;23695;55.868;37.472;2022-09-09T11:28:32;66079.69;;;-144.89;100.00
37858;BME280;23695;55.868;37.472;2022-09-09T11:33:55;66079.69;;;-144.89;100.00
37858;BME280;23695;55.868;37.472;2022-09-09T11:39:35;66079.69;;;-144.89;100.00
37858;BME280;23695;55.868;37.472;2022-09-09T11:42:07;66079.69;;;-144.89;100.00
37858;BME280;23695;55.868;37.472;2022-09-09T11:44:42;66079.69;;;-144.89;100.00
37858;BME280;23695;55.868;37.472;2022-09-09T11:47:26;66079.69;;;-144.89;100.00
37858;BME280;23695;55.868;37.472;2022-09-09T11:52:47;66079.69;;;-144.89;100.00
37858;BME280;23695;55.868;37.472;2022-09-09T11:55:32;66079.69;;;-144.89;100.00
37858;BME280;23695;55.868;37.472;2022-09-09T11:58:02;66079.69;;;-144.89;100.00
37858;BME280;23695;55.868;37.472;2022-09-09T12:03:04;66079.69;;;-144.89;100.00
37858;BME280;23695;55.868;37.472;2022-09-09T12:05:41;66079.69;;;-144.89;100.00
37858;BME280;23695;55.868;37.472;2022-09-09T12:08:26;66079.69;;;-144.89;100.00
37858;BME280;23695;55.868;37.472;2022-09-09T12:10:58;66079.69;;;-144.89;100.00
37858;BME280;23695;55.868;37.472;2022-09-09T12:13:30;66079.69;;;-144.89;100.00
37858;BME280;23695;55.868;37.472;2022-09-09T12:15:59;66079.69;;;-144.89;100.00
37858;BME280;23695;55.868;37.472;2022-09-09T12:21:30;66079.69;;;-144.89;100.00
37858;BME280;23695;55.868;37.472;2022-09-09T12:24:08;66079.69;;;-144.89;100.00
37858;BME280;23695;55.868;37.472;2022-09-09T12:32:15;66079.69;;;-144.89;100.00
37858;BME280;23695;55.868;37.472;2022-09-09T12:34:59;66079.69;;;-144.89;100.00
37858;BME280;23695;55.868;37.472;2022-09-09T12:40:25;66079.69;;;-144.89;100.00
37858;BME280;23695;55.868;37.472;2022-09-09T12:42:53;66079.69;;;-144.89;100.00
37858;BME280;23695;55.868;37.472;2022-09-09T12:45:24;66079.69;;;-144.89;100.00
37858;BME280;23695;55.868;37.472;2022-09-09T12:50:28;66079.69;;;-144.89;100.00
37858;BME280;23695;55.868;37.472;2022-09-09T12:52:57;66079.69;;;-144.89;100.00
37858;BME280;23695;55.868;37.472;2022-09-09T12:55:29;66079.69;;;-144.89;100.00
37858;BME280;23695;55.868;37.472;2022-09-09T12:57:57;66079.69;;;-144.89;100.00
37858;BME280;23695;55.868;37.472;2022-09-09T13:00:26;66079.69;;;-144.89;100.00
37858;BME280;23695;55.868;37.472;2022-09-09T13:03:00;66079.69;;;-144.89;100.00
37858;BME280;23695;55.868;37.472;2022-09-09T13:05:34;66079.69;;;-144.89;100.00
37858;BME280;23695;55.868;37.472;2022-09-09T13:08:09;66079.69;;;-144.89;100.00
37858;BME280;23695;55.868;37.472;2022-09-09T13:10:50;66079.69;;;-144.89;100.00
37858;BME280;23695;55.868;37.472;2022-09-09T13:13:27;66079.69;;;-144.89;100.00
37858;BME280;23695;55.868;37.472;2022-09-09T13:15:58;66079.69;;;-144.89;100.00
37858;BME280;23695;55.868;37.472;2022-09-09T13:18:31;66079.69;;;-144.89;100.00
37858;BME280;23695;55.868;37.472;2022-09-09T13:21:00;66079.69;;;-144.89;100.00
37858;BME280;23695;55.868;37.472;2022-09-09T13:23:35;66079.69;;;-144.89;100.00
37858;BME280;23695;55.868;37.472;2022-09-09T13:26:06;66079.69;;;-144.89;100.00
37858;BME280;23695;55.868;37.472;2022-09-09T13:28:45;66079.69;;;-144.89;100.00
37858;BME280;23695;55.868;37.472;2022-09-09T13:31:30;66079.69;;;-144.89;100.00
37858;BME280;23695;55.868;37.472;2022-09-09T13:33:59;66079.69;;;-144.89;100.00
37858;BME280;23695;55.868;37.472;2022-09-09T13:36:31;66079.69;;;-144.89;100.00
37858;BME280;23695;55.868;37.472;2022-09-09T13:39:00;66079.69;;;-144.89;100.00
37858;BME280;23695;55.868;37.472;2022-09-09T13:41:36;66079.69;;;-144.89;100.00
37858;BME280;23695;55.868;37.472;2022-09-09T13:44:23;66079.69;;;-144.89;100.00
37858;BME280;23695;55.868;37.472;2022-09-09T13:47:20;66079.69;;;-144.89;100.00
37858;BME280;23695;55.868;37.472;2022-09-09T13:49:48;66079.69;;;-144.89;100.00
37858;BME280;23695;55.868;37.472;2022-09-09T13:52:17;66079.69;;;-144.89;100.00
37858;BME280;23695;55.868;37.472;2022-09-09T13:54:49;66079.69;;;-144.89;100.00
37858;BME280;23695;55.868;37.472;2022-09-09T13:57:24;66079.69;;;-144.89;100.00
37858;BME280;23695;55.868;37.472;2022-09-09T13:59:53;66079.69;;;-144.89;100.00
37858;BME280;23695;55.868;37.472;2022-09-09T14:02:36;66079.69;;;-144.89;100.00
37858;BME280;23695;55.868;37.472;2022-09-09T14:05:05;66079.69;;;-144.89;100.00
37858;BME280;23695;55.868;37.472;2022-09-09T14:07:33;66079.69;;;-144.89;100.00
37858;BME280;23695;55.868;37.472;2022-09-09T14:09:59;66079.69;;;-144.89;100.00
37858;BME280;23695;55.868;37.472;2022-09-09T14:12:29;66079.69;;;-144.89;100.00
37858;BME280;23695;55.868;37.472;2022-09-09T14:14:56;66079.69;;;-144.89;100.00
37858;BME280;23695;55.868;37.472;2022-09-09T14:17:23;66079.69;;;-144.89;100.00
37858;BME280;23695;55.868;37.472;2022-09-09T14:19:51;66079.69;;;-144.89;100.00
37858;BME280;23695;55.868;37.472;2022-09-09T14:22:18;66079.69;;;-144.89;100.00
37858;BME280;23695;55.868;37.472;2022-09-09T14:24:45;66079.69;;;-144.89;100.00
37858;BME280;23695;55.868;37.472;2022-09-09T14:27:13;66079.69;;;-144.89;100.00
37858;BME280;23695;55.868;37.472;2022-09-09T14:29:40;66079.69;;;-144.89;100.00
37858;BME280;23695;55.868;37.472;2022-09-09T14:32:07;66079.69;;;-144.89;100.00
37858;BME280;23695;55.868;37.472;2022-09-09T14:34:38;66079.69;;;-144.89;100.00
37858;BME280;23695;55.868;37.472;2022-09-09T14:37:05;66079.69;;;-144.89;100.00
37858;BME280;23695;55.868;37.472;2022-09-09T14:39:33;66079.69;;;-144.89;100.00
37858;BME280;23695;55.868;37.472;2022-09-09T14:42:00;66079.69;;;-144.89;100.00
37858;BME280;23695;55.868;37.472;2022-09-09T14:44:28;66079.69;;;-144.89;100.00
37858;BME280;23695;55.868;37.472;2022-09-09T14:46:55;66079.69;;;-144.89;100.00
37858;BME280;23695;55.868;37.472;2022-09-09T14:49:22;66079.69;;;-144.89;100.00
37858;BME280;23695;55.868;37.472;2022-09-09T14:51:48;66079.69;;;-144.89;100.00
37858;BME280;23695;55.868;37.472;2022-09-09T14:54:16;66079.69;;;-144.89;100.00